Time;durP1;ratioP1;P1;durP2;ratioP2;P2;SDS_P1;SDS_P2;PMS_P1;PMS_P2;Temp;Humidity;BMP_temperature;BMP_pressure;BME280_temperature;BME280_humidity;BME280_pressure;Samples;Min_cycle;Max_cycle;Signal;HPM_P1;HPM_P2
2023/09/16 00:00:06;;;;;;;3.77;2.23;;;16.30;65.60;;;;;;4979853;28;20057;-80
2023/09/16 00:02:37;;;;;;;5.70;2.78;;;16.20;65.90;;;;;;4973414;28;20266;-80
2023/09/16 00:05:05;;;;;;;5.18;2.90;;;16.10;66.10;;;;;;4973646;28;20062;-80
2023/09/16 00:07:31;;;;;;;4.95;3.08;;;16.10;66.30;;;;;;4972685;28;20550;-80
2023/09/16 00:09:58;;;;;;;4.60;2.80;;;16.00;66.40;;;;;;4978486;28;20055;-80
2023/09/16 00:12:25;;;;;;;5.77;2.70;;;16.00;66.50;;;;;;4989619;28;20066;-80
2023/09/16 00:14:52;;;;;;;4.70;3.10;;;16.00;66.40;;;;;;4973381;28;20050;-80
2023/09/16 00:17:21;;;;;;;6.05;3.05;;;16.00;66.50;;;;;;4973375;28;20134;-80
2023/09/16 00:19:50;;;;;;;5.13;2.90;;;16.00;66.50;;;;;;4979767;28;20050;-80
2023/09/16 00:22:19;;;;;;;4.57;2.95;;;16.00;66.70;;;;;;5025413;28;20699;-81
2023/09/16 00:24:47;;;;;;;6.63;3.00;;;15.90;66.50;;;;;;5012204;28;20078;-81
2023/09/16 00:27:15;;;;;;;4.72;2.90;;;15.90;66.70;;;;;;4973079;28;20117;-80
2023/09/16 00:29:42;;;;;;;5.25;2.90;;;15.80;66.60;;;;;;4992660;28;20050;-80
2023/09/16 00:32:09;;;;;;;6.75;3.30;;;15.80;66.60;;;;;;5009043;28;20062;-80
2023/09/16 00:34:36;;;;;;;5.47;3.00;;;15.80;66.80;;;;;;5019631;28;20130;-80
2023/09/16 00:37:05;;;;;;;8.67;3.23;;;15.70;67.10;;;;;;4973170;28;20407;-80
2023/09/16 00:39:32;;;;;;;6.05;3.20;;;15.60;67.30;;;;;;4973059;28;20142;-80
2023/09/16 00:41:59;;;;;;;5.32;3.60;;;15.60;67.50;;;;;;4988524;28;20059;-80
2023/09/16 00:44:26;;;;;;;5.45;3.50;;;15.60;67.60;;;;;;4973249;28;20224;-80
2023/09/16 00:46:53;;;;;;;5.72;3.50;;;15.50;67.70;;;;;;4992388;28;20137;-80
2023/09/16 00:49:20;;;;;;;5.13;3.40;;;15.50;67.70;;;;;;4992018;28;20047;-80
2023/09/16 00:51:47;;;;;;;5.82;3.50;;;15.50;67.50;;;;;;4989191;28;20042;-80
2023/09/16 00:54:16;;;;;;;5.88;3.50;;;15.50;67.80;;;;;;4989314;28;20214;-80
2023/09/16 00:56:44;;;;;;;5.60;3.70;;;15.50;67.80;;;;;;4991101;28;20588;-80
2023/09/16 00:59:13;;;;;;;4.55;2.75;;;15.40;67.80;;;;;;5013145;28;20093;-80
2023/09/16 01:01:41;;;;;;;4.10;2.33;;;15.40;67.90;;;;;;4991037;28;20131;-80
2023/09/16 01:04:08;;;;;;;4.15;2.33;;;15.40;68.00;;;;;;4992407;28;20046;-80
2023/09/16 01:06:36;;;;;;;4.82;3.15;;;15.40;68.20;;;;;;4975673;28;20074;-80
2023/09/16 01:09:04;;;;;;;5.15;2.78;;;15.30;68.30;;;;;;4988710;28;20053;-80
2023/09/16 01:11:33;;;;;;;5.10;3.20;;;15.30;68.50;;;;;;4972435;28;20053;-80
2023/09/16 01:14:00;;;;;;;5.50;3.20;;;15.30;68.70;;;;;;5008494;28;20050;-80
2023/09/16 01:16:36;;;;;;;5.43;3.20;;;15.20;68.70;;;;;;4993772;28;20490;-80
2023/09/16 01:19:15;;;;;;;5.50;3.17;;;15.20;68.80;;;;;;5005172;28;20054;-80
2023/09/16 01:21:43;;;;;;;6.90;3.20;;;15.20;68.90;;;;;;5004146;28;20524;-80
2023/09/16 01:24:17;;;;;;;6.50;4.00;;;15.20;68.80;;;;;;4979408;28;20054;-80
2023/09/16 01:26:47;;;;;;;6.17;3.33;;;15.20;68.90;;;;;;4988837;28;20050;-80
2023/09/16 01:29:14;;;;;;;5.53;3.40;;;15.20;68.80;;;;;;4972257;28;20470;-80
2023/09/16 01:31:42;;;;;;;8.30;4.40;;;15.20;68.80;;;;;;4988163;28;20130;-80
2023/09/16 01:34:13;;;;;;;6.32;3.38;;;15.20;68.80;;;;;;4972073;28;20057;-80
2023/09/16 01:36:43;;;;;;;6.28;3.17;;;15.20;69.00;;;;;;4970645;28;20082;-80
2023/09/16 01:39:12;;;;;;;6.20;3.83;;;15.10;69.10;;;;;;5024717;28;20070;-80
2023/09/16 01:41:40;;;;;;;5.20;3.30;;;15.00;69.20;;;;;;4982766;28;20568;-80
2023/09/16 01:44:09;;;;;;;6.45;3.90;;;15.00;69.40;;;;;;4972005;28;20051;-80
2023/09/16 01:46:36;;;;;;;5.70;3.35;;;15.00;69.20;;;;;;4988130;28;20663;-79
2023/09/16 01:49:03;;;;;;;4.82;3.45;;;15.00;69.40;;;;;;4954667;28;20054;-80
2023/09/16 01:51:31;;;;;;;6.80;3.77;;;15.00;69.20;;;;;;5001052;28;20137;-80
2023/09/16 01:53:58;;;;;;;5.63;3.30;;;15.00;69.40;;;;;;5007836;28;20503;-80
2023/09/16 01:56:28;;;;;;;5.85;3.80;;;15.00;69.30;;;;;;5013441;28;20250;-80
2023/09/16 01:58:56;;;;;;;8.27;4.60;;;15.00;69.30;;;;;;4985286;28;20213;-80
2023/09/16 02:01:24;;;;;;;8.18;4.57;;;15.00;69.30;;;;;;4980968;28;20051;-80
2023/09/16 02:03:52;;;;;;;6.37;3.77;;;15.00;69.10;;;;;;4988646;28;20055;-80
2023/09/16 02:06:19;;;;;;;6.32;4.40;;;15.00;69.20;;;;;;4987978;28;20504;-80
2023/09/16 02:08:48;;;;;;;5.85;3.10;;;14.90;69.40;;;;;;4971902;28;20042;-80
2023/09/16 02:11:16;;;;;;;6.40;3.78;;;14.90;69.50;;;;;;4988350;28;20078;-80
2023/09/16 02:13:43;;;;;;;6.90;4.57;;;14.90;69.60;;;;;;4971697;28;20053;-80
2023/09/16 02:16:11;;;;;;;7.03;5.07;;;14.80;69.70;;;;;;4962481;28;20117;-80
2023/09/16 02:18:41;;;;;;;7.55;4.63;;;14.80;69.90;;;;;;4991675;28;20050;-80
2023/09/16 02:21:08;;;;;;;6.28;4.50;;;14.80;70.10;;;;;;5007182;28;20164;-80
2023/09/16 02:23:35;;;;;;;6.25;4.38;;;14.80;70.00;;;;;;4987358;28;20054;-80
2023/09/16 02:26:02;;;;;;;9.32;3.95;;;14.80;70.00;;;;;;4961333;28;20137;-80
2023/09/16 02:28:30;;;;;;;4.60;3.10;;;14.70;70.20;;;;;;5007740;28;20081;-80
2023/09/16 02:30:57;;;;;;;5.35;3.50;;;14.70;70.10;;;;;;4987074;28;20144;-80
2023/09/16 02:33:24;;;;;;;5.45;3.85;;;14.70;70.20;;;;;;4971998;28;20047;-80
2023/09/16 02:35:52;;;;;;;5.22;3.58;;;14.70;70.20;;;;;;4972073;28;20490;-80
2023/09/16 02:38:19;;;;;;;7.80;4.35;;;14.60;70.40;;;;;;4955401;28;20082;-80
2023/09/16 02:40:47;;;;;;;6.10;3.80;;;14.60;70.40;;;;;;4963990;28;20074;-80
2023/09/16 02:43:15;;;;;;;5.65;3.70;;;14.60;70.10;;;;;;4987989;28;20051;-80
2023/09/16 02:45:44;;;;;;;6.72;4.25;;;14.60;70.10;;;;;;4986985;28;20182;-80
2023/09/16 02:48:17;;;;;;;6.68;4.32;;;14.60;69.90;;;;;;4987074;28;20466;-80
2023/09/16 02:50:47;;;;;;;7.00;3.90;;;14.60;70.00;;;;;;4955173;28;20055;-80
2023/09/16 02:53:16;;;;;;;6.77;4.47;;;14.60;69.90;;;;;;4987640;28;20051;-80
2023/09/16 02:55:43;;;;;;;6.90;4.50;;;14.60;69.70;;;;;;4970090;28;20090;-80
2023/09/16 02:58:10;;;;;;;6.57;4.38;;;14.60;69.70;;;;;;4987982;28;20082;-80
2023/09/16 03:00:36;;;;;;;7.32;4.60;;;14.50;69.80;;;;;;4970871;28;20090;-80
2023/09/16 03:03:05;;;;;;;6.88;4.43;;;14.50;70.00;;;;;;4987278;28;20101;-80
2023/09/16 03:05:33;;;;;;;6.63;4.10;;;14.50;70.00;;;;;;4972417;28;20129;-80
2023/09/16 03:08:00;;;;;;;7.30;4.82;;;14.50;70.20;;;;;;4990425;28;20055;-80
2023/09/16 03:10:28;;;;;;;6.72;4.20;;;14.50;70.10;;;;;;5009834;28;20057;-80
2023/09/16 03:12:56;;;;;;;7.57;4.50;;;14.40;70.10;;;;;;4993406;28;20053;-79
2023/09/16 03:15:23;;;;;;;6.80;4.30;;;14.40;70.10;;;;;;4993413;28;20576;-80
2023/09/16 03:17:50;;;;;;;5.93;4.00;;;14.40;70.30;;;;;;5010124;28;20645;-80
2023/09/16 03:20:17;;;;;;;8.07;3.72;;;14.40;70.40;;;;;;4989012;28;20054;-79
2023/09/16 03:22:45;;;;;;;5.35;3.40;;;14.40;70.70;;;;;;4973970;28;20053;-80
2023/09/16 03:25:12;;;;;;;6.43;2.90;;;14.40;70.90;;;;;;4975643;28;20047;-80
2023/09/16 03:27:40;;;;;;;6.10;3.20;;;14.30;71.10;;;;;;4957329;28;20105;-79
2023/09/16 03:30:08;;;;;;;4.87;2.50;;;14.30;71.20;;;;;;4990589;28;20050;-80
2023/09/16 03:32:39;;;;;;;3.72;2.30;;;14.30;71.20;;;;;;4977588;28;20050;-80
2023/09/16 03:35:07;;;;;;;3.92;2.33;;;14.30;71.40;;;;;;5023141;28;20660;-80
2023/09/16 03:37:34;;;;;;;8.52;2.72;;;14.20;71.40;;;;;;4991541;28;20086;-80
2023/09/16 03:40:05;;;;;;;3.92;2.60;;;14.20;71.50;;;;;;4988749;28;20117;-80
2023/09/16 03:42:32;;;;;;;4.93;2.80;;;14.10;71.60;;;;;;5009395;28;20045;-80
2023/09/16 03:45:01;;;;;;;4.85;2.95;;;14.10;71.60;;;;;;5009060;28;20560;-80
2023/09/16 03:47:28;;;;;;;4.93;3.00;;;14.10;71.80;;;;;;4990064;28;20142;-80
2023/09/16 03:49:56;;;;;;;4.13;3.05;;;14.10;71.90;;;;;;4989463;28;20055;-80
2023/09/16 03:52:23;;;;;;;4.18;2.80;;;14.10;72.00;;;;;;4988572;28;20525;-80
2023/09/16 03:54:50;;;;;;;8.53;3.17;;;14.10;72.10;;;;;;5002682;28;20050;-80
2023/09/16 03:57:17;;;;;;;4.15;2.63;;;14.00;72.30;;;;;;4992876;28;20087;-80
2023/09/16 03:59:44;;;;;;;4.88;3.00;;;14.00;72.20;;;;;;4992981;28;20556;-80
2023/09/16 04:02:13;;;;;;;4.32;2.63;;;14.00;72.20;;;;;;4991421;28;20039;-80
2023/09/16 04:04:40;;;;;;;4.32;2.25;;;14.00;72.50;;;;;;4973603;28;20490;-80
2023/09/16 04:07:06;;;;;;;3.90;2.20;;;13.90;72.50;;;;;;4989756;28;20313;-80
2023/09/16 04:09:33;;;;;;;4.10;2.30;;;13.90;72.60;;;;;;4988671;28;20086;-80
2023/09/16 04:12:00;;;;;;;3.78;2.30;;;13.90;72.70;;;;;;4989565;28;20860;-81
2023/09/16 04:14:29;;;;;;;4.60;2.67;;;13.90;72.80;;;;;;4981649;28;20054;-80
2023/09/16 04:16:56;;;;;;;4.10;2.35;;;13.90;72.70;;;;;;4992111;28;20133;-80
2023/09/16 04:19:24;;;;;;;4.47;2.23;;;13.90;72.70;;;;;;4984777;28;20057;-80
2023/09/16 04:21:52;;;;;;;3.65;1.92;;;13.90;72.70;;;;;;4972708;28;20051;-80
2023/09/16 04:24:20;;;;;;;3.83;2.00;;;13.90;72.50;;;;;;4989731;28;20081;-80
2023/09/16 04:26:48;;;;;;;3.33;2.08;;;13.80;72.20;;;;;;4956099;28;20042;-80
2023/09/16 04:29:15;;;;;;;4.35;2.22;;;13.70;72.20;;;;;;4962487;28;20539;-80
2023/09/16 04:31:42;;;;;;;3.80;2.20;;;13.70;72.30;;;;;;5008818;28;20484;-80
2023/09/16 04:34:10;;;;;;;4.57;2.45;;;13.70;72.30;;;;;;5020033;28;20073;-80
2023/09/16 04:36:40;;;;;;;3.90;2.20;;;13.60;72.30;;;;;;4988898;28;20047;-80
2023/09/16 04:39:08;;;;;;;4.00;2.30;;;13.60;72.30;;;;;;4992998;28;20111;-80
2023/09/16 04:41:36;;;;;;;3.35;2.00;;;13.60;72.30;;;;;;5024827;28;20547;-80
2023/09/16 04:44:08;;;;;;;3.20;1.90;;;13.60;72.30;;;;;;5011087;28;20418;-80
2023/09/16 04:46:35;;;;;;;3.80;2.20;;;13.60;72.20;;;;;;5024852;28;20573;-80
2023/09/16 04:49:06;;;;;;;3.65;2.30;;;13.60;72.20;;;;;;5024685;28;20353;-80
2023/09/16 04:51:33;;;;;;;4.03;2.28;;;13.60;72.00;;;;;;5007999;28;20077;-80
2023/09/16 04:54:02;;;;;;;5.00;2.22;;;13.60;72.00;;;;;;4988929;28;20142;-80
2023/09/16 04:56:31;;;;;;;3.60;2.30;;;13.60;72.10;;;;;;4988718;28;20584;-80
2023/09/16 04:58:59;;;;;;;3.45;2.28;;;13.50;71.80;;;;;;4972085;28;20057;-80
2023/09/16 05:01:29;;;;;;;4.05;2.60;;;13.50;71.80;;;;;;4972170;28;20552;-80
2023/09/16 05:03:56;;;;;;;3.83;2.55;;;13.50;72.00;;;;;;5005092;28;20047;-80
2023/09/16 05:06:24;;;;;;;4.00;2.70;;;13.50;71.80;;;;;;5023830;28;20556;-80
2023/09/16 05:08:53;;;;;;;4.50;2.80;;;13.50;72.10;;;;;;4988573;28;20235;-80
2023/09/16 05:11:22;;;;;;;4.05;3.00;;;13.50;72.30;;;;;;4973107;28;20043;-80
2023/09/16 05:13:53;;;;;;;4.53;3.00;;;13.40;72.40;;;;;;4987764;28;20051;-80
2023/09/16 05:16:20;;;;;;;5.00;2.92;;;13.30;72.50;;;;;;4971247;28;20089;-80
2023/09/16 05:18:47;;;;;;;4.38;2.63;;;13.30;72.70;;;;;;4988362;28;20117;-80
2023/09/16 05:21:14;;;;;;;4.70;2.80;;;13.30;72.80;;;;;;4973574;28;20043;-80
2023/09/16 05:23:41;;;;;;;4.45;3.00;;;13.30;72.90;;;;;;4988066;28;20077;-80
2023/09/16 05:26:13;;;;;;;4.90;3.15;;;13.20;72.90;;;;;;4972852;28;20050;-80
2023/09/16 05:28:42;;;;;;;4.13;3.03;;;13.10;73.20;;;;;;4986962;28;20098;-80
2023/09/16 05:31:11;;;;;;;4.10;3.00;;;13.10;73.40;;;;;;4974918;28;20055;-80
2023/09/16 05:33:40;;;;;;;5.03;3.53;;;13.10;73.50;;;;;;4986970;28;20050;-80
2023/09/16 05:36:07;;;;;;;5.10;3.58;;;13.10;73.60;;;;;;4971540;28;20057;-80
2023/09/16 05:38:34;;;;;;;5.88;3.65;;;13.00;73.70;;;;;;5010101;28;20058;-80
2023/09/16 05:41:01;;;;;;;6.15;3.80;;;13.00;73.90;;;;;;4990986;28;20732;-80
2023/09/16 05:43:29;;;;;;;5.70;3.92;;;13.00;74.20;;;;;;5007563;28;20476;-80
2023/09/16 05:45:58;;;;;;;5.77;4.10;;;13.00;74.30;;;;;;4971207;28;20083;-80
2023/09/16 05:48:26;;;;;;;6.38;3.90;;;13.00;74.30;;;;;;4971650;28;20101;-79
2023/09/16 05:51:00;;;;;;;5.10;3.28;;;13.10;74.10;;;;;;4986600;28;20043;-79
2023/09/16 05:53:30;;;;;;;4.57;3.10;;;13.10;74.00;;;;;;5008492;28;20050;-80
2023/09/16 05:56:04;;;;;;;4.10;2.75;;;13.10;74.10;;;;;;4990932;28;20050;-80
2023/09/16 05:58:32;;;;;;;4.63;3.00;;;13.10;74.20;;;;;;4996382;28;20082;-79
2023/09/16 06:01:01;;;;;;;4.75;3.00;;;13.10;74.30;;;;;;4987411;28;20086;-79
2023/09/16 06:03:28;;;;;;;4.35;2.90;;;13.10;74.40;;;;;;4971671;28;20109;-79
2023/09/16 06:06:00;;;;;;;5.07;3.60;;;13.10;74.20;;;;;;4987850;28;20129;-79
2023/09/16 06:08:27;;;;;;;5.82;3.40;;;13.10;74.40;;;;;;4989694;28;20054;-79
2023/09/16 06:10:57;;;;;;;5.97;3.70;;;13.10;74.50;;;;;;5023712;28;20158;-80
2023/09/16 06:13:25;;;;;;;6.10;4.15;;;13.10;74.50;;;;;;4990128;28;20047;-79
2023/09/16 06:15:53;;;;;;;8.27;5.10;;;13.20;74.40;;;;;;5019908;28;20594;-79
2023/09/16 06:18:21;;;;;;;6.57;4.70;;;13.20;74.90;;;;;;4986715;28;20062;-79
2023/09/16 06:20:49;;;;;;;8.13;5.38;;;13.20;75.30;;;;;;4986818;28;20053;-79
2023/09/16 06:23:17;;;;;;;7.93;5.40;;;13.20;75.00;;;;;;4986633;28;20497;-79
2023/09/16 06:25:44;;;;;;;8.85;5.80;;;13.20;75.10;;;;;;4954341;28;20054;-79
2023/09/16 06:28:11;;;;;;;6.95;5.00;;;13.30;75.00;;;;;;4971195;28;20506;-79
2023/09/16 06:30:39;;;;;;;9.85;6.47;;;13.30;74.90;;;;;;4970579;28;20137;-79
2023/09/16 06:33:06;;;;;;;9.95;7.43;;;13.30;74.70;;;;;;4986738;28;20051;-79
2023/09/16 06:35:34;;;;;;;10.30;7.00;;;13.30;75.00;;;;;;4955008;28;20174;-79
2023/09/16 06:38:02;;;;;;;11.35;8.07;;;13.30;75.60;;;;;;4970731;28;20649;-79
2023/09/16 06:40:29;;;;;;;12.23;9.05;;;13.30;75.40;;;;;;4989043;28;20362;-79
2023/09/16 06:42:56;;;;;;;12.05;8.93;;;13.30;76.20;;;;;;5006702;28;20122;-79
2023/09/16 06:45:28;;;;;;;13.70;9.40;;;13.30;75.90;;;;;;4990286;28;20062;-79
2023/09/16 06:47:56;;;;;;;11.43;7.33;;;13.40;75.80;;;;;;4993819;28;20143;-79
2023/09/16 06:50:23;;;;;;;11.85;8.35;;;13.50;76.30;;;;;;5009325;28;20126;-79
2023/09/16 06:52:51;;;;;;;12.85;9.63;;;13.50;76.10;;;;;;5010131;28;20057;-79
2023/09/16 06:55:18;;;;;;;13.27;9.02;;;13.50;76.00;;;;;;4993506;28;20152;-79
2023/09/16 06:57:45;;;;;;;13.50;9.48;;;13.50;76.70;;;;;;4987229;28;20054;-79
2023/09/16 07:00:14;;;;;;;14.73;10.27;;;13.50;77.10;;;;;;5005297;28;20052;-79
2023/09/16 07:02:41;;;;;;;13.77;10.20;;;13.50;78.00;;;;;;5009799;28;20622;-79
2023/09/16 07:05:10;;;;;;;15.45;11.25;;;13.60;77.30;;;;;;4993112;28;20051;-79
2023/09/16 07:07:37;;;;;;;15.90;10.90;;;13.60;77.70;;;;;;4989998;28;20053;-79
2023/09/16 07:10:06;;;;;;;16.42;11.23;;;13.60;77.20;;;;;;5006152;28;20121;-79
2023/09/16 07:12:33;;;;;;;15.73;10.73;;;13.70;78.00;;;;;;4990222;28;20137;-79
2023/09/16 07:15:00;;;;;;;14.25;10.52;;;13.70;78.60;;;;;;4972754;28;20061;-79
2023/09/16 07:17:27;;;;;;;16.55;10.80;;;13.80;79.00;;;;;;4991150;28;20520;-79
2023/09/16 07:19:54;;;;;;;15.35;11.75;;;13.90;78.80;;;;;;4981413;28;20124;-79
2023/09/16 07:22:21;;;;;;;14.70;11.18;;;13.90;78.60;;;;;;4988186;28;20054;-79
2023/09/16 07:24:47;;;;;;;16.37;10.63;;;13.90;79.40;;;;;;4970514;28;20047;-79
2023/09/16 07:27:17;;;;;;;17.40;11.25;;;14.00;80.30;;;;;;4969874;28;20537;-79
2023/09/16 07:29:44;;;;;;;16.73;11.43;;;14.10;80.90;;;;;;4969989;28;20071;-79
2023/09/16 07:32:11;;;;;;;15.88;11.60;;;14.20;81.20;;;;;;4997703;28;20085;-79
2023/09/16 07:34:38;;;;;;;17.60;12.10;;;14.30;81.50;;;;;;4973365;28;20150;-79
2023/09/16 07:37:05;;;;;;;17.90;11.60;;;14.30;81.50;;;;;;4989235;28;20075;-79
2023/09/16 07:39:32;;;;;;;21.63;12.63;;;14.40;81.80;;;;;;4973012;28;20675;-79
2023/09/16 07:42:00;;;;;;;18.88;12.32;;;14.50;82.10;;;;;;4989337;28;20153;-79
2023/09/16 07:44:28;;;;;;;17.45;12.80;;;14.60;81.90;;;;;;4975941;28;20057;-79
2023/09/16 07:46:55;;;;;;;17.23;12.07;;;14.70;82.10;;;;;;4992788;28;20686;-79
2023/09/16 07:49:22;;;;;;;16.73;11.57;;;14.80;82.10;;;;;;4987803;28;20146;-79
2023/09/16 07:51:49;;;;;;;17.30;12.07;;;14.90;82.80;;;;;;4972398;28;20122;-79
2023/09/16 07:54:16;;;;;;;18.40;12.60;;;15.00;82.70;;;;;;4989330;28;20138;-79
2023/09/16 07:56:47;;;;;;;18.55;12.93;;;15.00;83.00;;;;;;4972740;28;20145;-79
2023/09/16 07:59:19;;;;;;;17.35;11.98;;;15.20;83.10;;;;;;4976512;28;20085;-79
2023/09/16 08:01:47;;;;;;;20.30;12.80;;;15.20;82.40;;;;;;4972876;28;20062;-79
2023/09/16 08:04:14;;;;;;;16.63;11.40;;;15.30;82.00;;;;;;4972986;28;20647;-79
2023/09/16 08:06:41;;;;;;;16.15;11.77;;;15.40;81.60;;;;;;4971745;28;20046;-79
2023/09/16 08:09:08;;;;;;;16.05;11.20;;;15.40;81.50;;;;;;4984906;28;20870;-79
2023/09/16 08:11:35;;;;;;;17.52;12.13;;;15.50;81.90;;;;;;4992710;28;20058;-78
2023/09/16 08:14:02;;;;;;;15.13;10.90;;;15.50;82.50;;;;;;4975967;28;20066;-79
2023/09/16 08:16:29;;;;;;;16.92;10.82;;;15.60;82.90;;;;;;4953407;28;20149;-79
2023/09/16 08:18:57;;;;;;;15.18;10.30;;;15.60;82.80;;;;;;4963826;28;20050;-79
2023/09/16 08:21:24;;;;;;;18.75;11.30;;;15.80;83.50;;;;;;4971622;28;20190;-79
2023/09/16 08:23:51;;;;;;;15.40;10.80;;;15.90;83.70;;;;;;4977031;28;20058;-79
2023/09/16 08:26:18;;;;;;;15.10;10.13;;;16.00;84.00;;;;;;4988650;28;20064;-80
2023/09/16 08:28:45;;;;;;;16.75;9.80;;;16.10;83.80;;;;;;4972998;28;20054;-80
2023/09/16 08:31:12;;;;;;;14.68;9.85;;;16.10;83.30;;;;;;4972356;28;20558;-80
2023/09/16 08:33:40;;;;;;;13.85;9.57;;;16.20;83.60;;;;;;4972774;28;20051;-80
2023/09/16 08:36:08;;;;;;;15.55;10.05;;;16.40;83.90;;;;;;4972605;28;20059;-80
2023/09/16 08:38:35;;;;;;;15.53;10.67;;;16.40;83.90;;;;;;4971496;28;20047;-80
2023/09/16 08:41:11;;;;;;;13.95;10.25;;;16.60;83.80;;;;;;4972174;28;20137;-80
2023/09/16 08:43:40;;;;;;;16.05;10.32;;;16.70;83.90;;;;;;4977657;28;20171;-80
2023/09/16 08:46:10;;;;;;;14.57;10.60;;;16.80;82.90;;;;;;4991265;28;20081;-79
2023/09/16 08:48:43;;;;;;;15.60;10.80;;;16.80;82.40;;;;;;4975352;28;20141;-80
2023/09/16 08:51:15;;;;;;;15.20;10.73;;;16.90;83.10;;;;;;4972149;28;20149;-80
2023/09/16 08:53:44;;;;;;;15.20;10.13;;;17.00;83.30;;;;;;4972279;28;20055;-80
2023/09/16 08:56:11;;;;;;;15.73;10.23;;;17.00;83.30;;;;;;4971192;28;20174;-80
2023/09/16 08:58:39;;;;;;;14.57;9.52;;;17.20;83.40;;;;;;4976982;28;20043;-80
2023/09/16 09:01:07;;;;;;;12.20;8.68;;;17.20;83.20;;;;;;4991493;28;20058;-80
2023/09/16 09:03:34;;;;;;;11.67;7.50;;;17.30;83.00;;;;;;5003693;28;20059;-80
2023/09/16 09:06:03;;;;;;;12.30;8.05;;;17.40;82.70;;;;;;4988399;28;20078;-80
2023/09/16 09:08:32;;;;;;;10.82;7.50;;;17.50;82.00;;;;;;4988180;28;20134;-80
2023/09/16 09:11:00;;;;;;;12.00;7.43;;;17.50;81.70;;;;;;4989661;28;20137;-80
2023/09/16 09:13:29;;;;;;;12.15;7.97;;;17.50;81.50;;;;;;4989966;28;20106;-80
2023/09/16 09:16:00;;;;;;;11.67;8.10;;;17.60;81.50;;;;;;5008126;28;20087;-80
2023/09/16 09:18:29;;;;;;;11.40;8.02;;;17.60;81.20;;;;;;5024092;28;20169;-80
2023/09/16 09:20:56;;;;;;;11.73;7.57;;;17.80;81.60;;;;;;4974863;28;20672;-80
2023/09/16 09:23:24;;;;;;;11.55;7.60;;;17.80;82.00;;;;;;4974551;28;20504;-80
2023/09/16 09:25:52;;;;;;;10.93;7.55;;;18.00;82.10;;;;;;4972194;28;20089;-80
2023/09/16 09:28:22;;;;;;;13.00;7.53;;;18.10;81.80;;;;;;4971401;28;20051;-80
2023/09/16 09:30:50;;;;;;;10.07;6.95;;;18.20;81.60;;;;;;4970441;28;20051;-80
2023/09/16 09:33:21;;;;;;;11.73;7.40;;;18.30;81.00;;;;;;4971985;28;20187;-80
2023/09/16 09:35:48;;;;;;;10.95;6.65;;;18.40;80.60;;;;;;4989646;28;20440;-80
2023/09/16 09:38:19;;;;;;;9.63;6.07;;;18.50;80.10;;;;;;4989623;28;20136;-80
2023/09/16 09:41:00;;;;;;;10.07;6.27;;;18.50;79.80;;;;;;4987753;28;20553;-80
2023/09/16 09:43:30;;;;;;;11.38;7.22;;;18.60;79.80;;;;;;4971552;28;20061;-80
2023/09/16 09:45:56;;;;;;;11.05;7.85;;;18.70;79.80;;;;;;4986420;28;20563;-80
2023/09/16 09:48:24;;;;;;;13.00;8.32;;;18.80;79.60;;;;;;5004121;28;20057;-80
2023/09/16 09:50:51;;;;;;;12.85;8.40;;;18.90;79.50;;;;;;5021846;28;20061;-80
2023/09/16 09:53:18;;;;;;;11.37;7.70;;;19.00;79.70;;;;;;4991093;28;20061;-81
2023/09/16 09:55:45;;;;;;;11.00;7.10;;;19.10;79.50;;;;;;4988047;28;20062;-80
2023/09/16 09:58:13;;;;;;;12.32;7.75;;;19.20;79.20;;;;;;4987956;28;20129;-80
2023/09/16 10:00:47;;;;;;;10.18;6.97;;;19.30;79.00;;;;;;4987643;28;20057;-80
2023/09/16 10:03:14;;;;;;;10.48;7.25;;;19.50;78.90;;;;;;4987026;28;20063;-80
2023/09/16 10:05:41;;;;;;;11.47;7.03;;;19.50;78.70;;;;;;4987975;28;20054;-80
2023/09/16 10:08:08;;;;;;;10.77;7.05;;;19.60;78.30;;;;;;4987942;28;20059;-81
2023/09/16 10:10:36;;;;;;;10.48;6.43;;;19.70;78.00;;;;;;4988836;28;20065;-81
2023/09/16 10:13:04;;;;;;;10.13;6.35;;;19.70;77.90;;;;;;4995324;28;20050;-81
2023/09/16 10:15:35;;;;;;;9.63;5.85;;;19.80;78.10;;;;;;4977651;28;20129;-81
2023/09/16 10:18:03;;;;;;;7.87;5.30;;;19.90;78.00;;;;;;4994210;28;20049;-80
2023/09/16 10:20:32;;;;;;;8.32;5.25;;;20.00;77.90;;;;;;4980976;28;20169;-81
2023/09/16 10:23:00;;;;;;;7.78;4.78;;;20.00;77.80;;;;;;4980782;28;20129;-81
2023/09/16 10:25:29;;;;;;;7.63;4.68;;;20.10;77.80;;;;;;5009431;28;20078;-81
2023/09/16 10:27:58;;;;;;;7.13;4.38;;;20.30;77.60;;;;;;4979764;28;20054;-81
2023/09/16 10:30:26;;;;;;;7.33;4.40;;;20.40;77.30;;;;;;4993899;28;20598;-81
2023/09/16 10:32:54;;;;;;;7.05;4.32;;;20.50;77.30;;;;;;4994115;28;20055;-81
2023/09/16 10:35:21;;;;;;;6.22;3.92;;;20.60;77.00;;;;;;5010799;28;20038;-81
2023/09/16 10:37:54;;;;;;;6.70;4.00;;;20.60;76.90;;;;;;4977767;28;20137;-81
2023/09/16 10:40:21;;;;;;;6.25;3.55;;;20.70;76.40;;;;;;4990986;28;20070;-81
2023/09/16 10:42:51;;;;;;;8.03;4.40;;;20.80;76.20;;;;;;4989844;28;20133;-81
2023/09/16 10:45:18;;;;;;;7.00;4.20;;;20.90;75.90;;;;;;4987111;28;20053;-81
2023/09/16 10:47:47;;;;;;;7.10;4.20;;;21.00;75.60;;;;;;4974695;28;20540;-81
2023/09/16 10:50:16;;;;;;;9.82;3.92;;;21.10;75.10;;;;;;4990503;28;20501;-81
2023/09/16 10:52:49;;;;;;;6.88;4.40;;;21.10;75.00;;;;;;4974045;28;20515;-81
2023/09/16 10:55:24;;;;;;;6.30;4.07;;;21.30;74.60;;;;;;4987516;28;20091;-81
2023/09/16 10:57:56;;;;;;;6.65;3.83;;;21.40;74.30;;;;;;5002454;28;20429;-81
2023/09/16 11:00:28;;;;;;;7.88;4.30;;;21.50;74.20;;;;;;4990356;28;20510;-81
2023/09/16 11:02:59;;;;;;;5.82;3.33;;;21.70;73.60;;;;;;4990390;28;20051;-81
2023/09/16 11:05:28;;;;;;;7.68;3.60;;;21.80;73.00;;;;;;4974221;28;20078;-81
2023/09/16 11:07:55;;;;;;;6.20;3.37;;;21.90;72.60;;;;;;4990248;28;20050;-81
2023/09/16 11:10:22;;;;;;;4.75;2.92;;;22.00;72.30;;;;;;4973285;28;20062;-82
2023/09/16 11:12:50;;;;;;;5.68;3.13;;;22.10;71.90;;;;;;4988420;28;20145;-81
2023/09/16 11:15:19;;;;;;;5.32;3.30;;;22.20;71.40;;;;;;5026272;28;20432;-81
2023/09/16 11:17:47;;;;;;;5.88;3.10;;;22.30;71.20;;;;;;4993776;28;20523;-81
2023/09/16 11:20:20;;;;;;;5.33;2.70;;;22.40;71.20;;;;;;4987085;28;20425;-82
2023/09/16 11:22:50;;;;;;;4.40;2.50;;;22.50;71.00;;;;;;4990689;28;20046;-81
2023/09/16 11:25:17;;;;;;;4.55;2.83;;;22.50;70.40;;;;;;4969935;28;20059;-82
2023/09/16 11:27:47;;;;;;;9.13;2.70;;;22.60;70.10;;;;;;4996218;28;20081;-82
2023/09/16 11:30:15;;;;;;;5.10;2.50;;;22.70;69.20;;;;;;4974069;28;20066;-82
2023/09/16 11:33:08;;;;;;;5.27;2.73;;;22.80;67.90;;;;;;5016463;28;20057;-82
2023/09/16 11:35:37;;;;;;;6.20;2.40;;;22.90;65.20;;;;;;5021518;28;20057;-82
2023/09/16 11:38:05;;;;;;;4.78;2.58;;;23.00;63.20;;;;;;4989994;28;20077;-82
2023/09/16 11:40:34;;;;;;;4.78;2.70;;;23.00;62.90;;;;;;4973435;28;20448;-81
2023/09/16 11:43:03;;;;;;;4.10;2.30;;;23.10;63.10;;;;;;4989996;28;20529;-82
2023/09/16 11:45:33;;;;;;;5.03;2.10;;;23.20;63.00;;;;;;4972538;28;20598;-82
2023/09/16 11:48:02;;;;;;;4.55;2.33;;;23.30;63.00;;;;;;4985272;28;20057;-82
2023/09/16 11:50:29;;;;;;;3.97;2.30;;;23.30;62.20;;;;;;4992765;28;20134;-82
2023/09/16 11:52:56;;;;;;;3.92;2.25;;;23.40;62.50;;;;;;5009039;28;20058;-82
2023/09/16 11:55:27;;;;;;;4.30;2.35;;;23.50;62.80;;;;;;4973541;28;20043;-81
2023/09/16 11:57:54;;;;;;;5.50;2.33;;;23.60;62.40;;;;;;4973103;28;20090;-82
2023/09/16 12:00:21;;;;;;;4.30;2.30;;;23.60;62.30;;;;;;4972521;28;20079;-82
2023/09/16 12:02:49;;;;;;;4.82;2.10;;;23.80;62.00;;;;;;4991576;28;20125;-83
2023/09/16 12:05:21;;;;;;;6.13;2.58;;;23.90;61.20;;;;;;4974045;28;20177;-82
2023/09/16 12:07:48;;;;;;;4.93;2.40;;;24.00;60.70;;;;;;5010520;28;20050;-81
2023/09/16 12:10:15;;;;;;;5.43;2.13;;;24.00;59.40;;;;;;5001003;28;20171;-82
2023/09/16 12:12:43;;;;;;;4.00;2.35;;;24.10;59.80;;;;;;4954074;28;20051;-82
2023/09/16 12:15:11;;;;;;;3.92;2.25;;;24.20;59.30;;;;;;4937696;28;20118;-82
2023/09/16 12:17:38;;;;;;;4.32;2.30;;;24.20;59.30;;;;;;4987340;28;20053;-82
2023/09/16 12:20:07;;;;;;;4.28;2.35;;;24.20;58.70;;;;;;4972408;28;20975;-82
2023/09/16 12:22:36;;;;;;;4.50;2.40;;;24.30;59.00;;;;;;4990822;28;20531;-82
2023/09/16 12:25:05;;;;;;;4.30;2.30;;;24.40;58.70;;;;;;4961743;28;20193;-82
2023/09/16 12:27:32;;;;;;;5.40;2.60;;;24.40;59.00;;;;;;4972484;28;20134;-82
2023/09/16 12:30:01;;;;;;;4.40;2.20;;;24.40;58.90;;;;;;4972531;28;20042;-81
2023/09/16 12:32:28;;;;;;;4.65;2.42;;;24.50;58.50;;;;;;4989303;28;20145;-82
2023/09/16 12:35:05;;;;;;;4.13;2.53;;;24.50;58.00;;;;;;4983284;28;20054;-81
2023/09/16 12:37:32;;;;;;;4.00;2.40;;;24.50;58.00;;;;;;4973016;28;20057;-81
2023/09/16 12:40:00;;;;;;;5.25;2.50;;;24.60;58.30;;;;;;4992086;28;20046;-81
2023/09/16 12:42:28;;;;;;;5.32;2.55;;;24.60;57.70;;;;;;4988884;28;20058;-81
2023/09/16 12:44:55;;;;;;;4.20;2.50;;;24.70;57.50;;;;;;4972326;28;20109;-81
2023/09/16 12:47:26;;;;;;;5.00;2.20;;;24.70;58.20;;;;;;4988534;28;20070;-82